createdAt,value
2022-10-08T00:00:12.006Z,0.73
2022-10-08T00:02:40.977Z,0.80
2022-10-08T00:05:10.217Z,0.89
2022-10-08T00:07:39.250Z,0.94
2022-10-08T00:10:08.807Z,0.92
2022-10-08T00:12:37.813Z,1.02
2022-10-08T00:15:07.219Z,1.09
2022-10-08T00:17:36.060Z,1.17
2022-10-08T00:20:05.220Z,1.21
2022-10-08T00:22:33.988Z,1.24
2022-10-08T00:25:02.772Z,1.31
2022-10-08T00:27:31.910Z,1.34
2022-10-08T00:30:00.637Z,1.34
2022-10-08T00:32:29.424Z,1.45
2022-10-08T00:34:58.432Z,1.54
2022-10-08T00:37:27.469Z,1.60
2022-10-08T00:39:56.211Z,1.66
2022-10-08T00:42:25.378Z,1.68
2022-10-08T00:45:01.614Z,1.79
2022-10-08T00:47:47.271Z,1.86
2022-10-08T00:50:35.835Z,1.84
2022-10-08T00:53:08.368Z,1.83
2022-10-08T00:55:43.590Z,1.79
2022-10-08T00:58:20.073Z,1.93
2022-10-08T01:00:50.140Z,1.99
2022-10-08T01:03:19.136Z,2.08
2022-10-08T01:06:02.586Z,2.22
2022-10-08T01:08:58.863Z,2.32
2022-10-08T01:11:36.247Z,2.39
2022-10-08T01:14:13.827Z,2.46
2022-10-08T01:17:30.988Z,2.53
2022-10-08T01:20:08.805Z,2.59
2022-10-08T01:22:44.035Z,2.70
2022-10-08T01:25:44.597Z,2.77
2022-10-08T01:28:24.358Z,2.86
2022-10-08T01:31:28.658Z,2.96
2022-10-08T01:34:02.809Z,3.08
2022-10-08T01:36:39.221Z,3.28
2022-10-08T01:39:13.210Z,3.49
2022-10-08T01:41:46.849Z,3.60
2022-10-08T01:44:24.987Z,3.71
2022-10-08T01:47:00.396Z,3.75
2022-10-08T01:49:39.863Z,3.81
2022-10-08T01:52:20.406Z,3.89
2022-10-08T01:54:52.018Z,3.94
2022-10-08T01:57:22.091Z,4.00
2022-10-08T02:00:00.860Z,4.18
2022-10-08T02:02:31.533Z,4.31
2022-10-08T02:05:00.459Z,4.45
2022-10-08T02:07:33.531Z,4.65
2022-10-08T02:10:15.007Z,4.90
2022-10-08T02:12:45.676Z,5.23
2022-10-08T02:15:33.084Z,5.55
2022-10-08T02:18:21.397Z,5.91
2022-10-08T02:21:25.080Z,6.12
2022-10-08T02:24:23.721Z,6.52
2022-10-08T02:26:57.661Z,6.71
2022-10-08T02:29:36.549Z,6.80
2022-10-08T02:32:09.065Z,6.91
2022-10-08T02:35:02.786Z,7.35
2022-10-08T02:38:02.088Z,7.50
2022-10-08T02:40:33.548Z,7.58
2022-10-08T02:43:09.195Z,7.44
2022-10-08T02:45:47.322Z,7.28
2022-10-08T02:48:24.628Z,7.09
2022-10-08T02:50:56.095Z,6.94
2022-10-08T02:53:26.386Z,6.85
2022-10-08T02:56:12.429Z,7.03
2022-10-08T02:58:43.725Z,7.35
2022-10-08T03:01:18.775Z,7.71
2022-10-08T03:03:54.254Z,8.18
2022-10-08T03:06:23.208Z,8.83
2022-10-08T03:08:53.241Z,9.48
2022-10-08T03:11:21.988Z,9.52
2022-10-08T03:13:53.453Z,9.48
2022-10-08T03:16:26.014Z,9.96
2022-10-08T03:18:59.560Z,12.39
2022-10-08T03:21:28.836Z,15.12
2022-10-08T03:23:57.561Z,15.78
2022-10-08T03:26:26.466Z,16.09
2022-10-08T03:28:55.309Z,17.29
2022-10-08T03:31:24.166Z,18.58
2022-10-08T03:33:54.454Z,19.37
2022-10-08T03:36:25.367Z,19.99
2022-10-08T03:38:54.153Z,20.52
2022-10-08T03:41:23.008Z,20.82
2022-10-08T03:43:51.846Z,20.75
2022-10-08T03:46:20.773Z,20.96
2022-10-08T03:48:50.730Z,20.90
2022-10-08T03:51:21.036Z,19.97
2022-10-08T03:53:49.971Z,19.99
2022-10-08T03:56:22.131Z,20.38
2022-10-08T03:58:57.962Z,20.03
2022-10-08T04:01:30.054Z,19.20
2022-10-08T04:03:59.039Z,18.06
2022-10-08T04:06:28.013Z,18.70
2022-10-08T04:09:01.446Z,19.05
2022-10-08T04:11:30.859Z,18.32
2022-10-08T04:14:01.314Z,18.30
2022-10-08T04:16:30.374Z,18.02
2022-10-08T04:18:59.169Z,18.94
2022-10-08T04:21:30.184Z,20.26
2022-10-08T04:23:59.060Z,21.45
2022-10-08T04:26:27.835Z,21.36
2022-10-08T04:28:56.662Z,21.78
2022-10-08T04:31:25.459Z,21.82
2022-10-08T04:33:54.311Z,20.85
2022-10-08T04:36:25.488Z,20.37
2022-10-08T04:38:54.463Z,20.33
2022-10-08T04:41:27.777Z,20.66
2022-10-08T04:44:01.656Z,19.75
2022-10-08T04:46:30.517Z,17.36
2022-10-08T04:49:00.665Z,15.07
2022-10-08T04:51:29.799Z,13.55
2022-10-08T04:53:59.121Z,12.65
2022-10-08T04:56:31.371Z,12.34
2022-10-08T04:59:00.669Z,13.52
2022-10-08T05:01:31.369Z,14.00
2022-10-08T05:04:00.385Z,14.32
2022-10-08T05:06:31.123Z,13.75
2022-10-08T05:09:04.663Z,12.51
2022-10-08T05:11:34.460Z,12.05
2022-10-08T05:14:03.447Z,11.84
2022-10-08T05:16:32.794Z,11.32
2022-10-08T05:19:01.559Z,10.99
2022-10-08T05:21:32.088Z,11.04
2022-10-08T05:24:07.285Z,13.01
2022-10-08T05:29:30.962Z,18.76
2022-10-08T05:31:59.790Z,20.35
2022-10-08T05:34:28.601Z,19.05
2022-10-08T05:36:57.502Z,17.52
2022-10-08T05:39:26.479Z,18.50
2022-10-08T05:41:55.322Z,19.81
2022-10-08T05:44:24.348Z,20.28
2022-10-08T05:46:53.184Z,20.69
2022-10-08T05:49:24.096Z,21.04
2022-10-08T05:51:52.884Z,21.68
2022-10-08T05:54:22.456Z,21.55
2022-10-08T05:56:51.743Z,21.43
2022-10-08T05:59:23.466Z,21.44
2022-10-08T06:01:53.403Z,21.47
2022-10-08T06:04:22.729Z,21.39
2022-10-08T06:06:51.579Z,21.06
2022-10-08T06:09:21.729Z,20.63
2022-10-08T06:11:51.020Z,20.34
2022-10-08T06:14:22.881Z,20.32
2022-10-08T06:16:51.813Z,19.46
2022-10-08T06:19:20.903Z,18.97
2022-10-08T06:21:50.718Z,19.05
2022-10-08T06:24:19.820Z,18.94
2022-10-08T06:26:48.587Z,19.53
2022-10-08T06:29:19.417Z,19.51
2022-10-08T06:31:48.174Z,19.53
2022-10-08T06:34:17.008Z,20.01
2022-10-08T06:36:45.817Z,20.38
2022-10-08T06:39:16.320Z,20.40
2022-10-08T06:41:45.211Z,20.24
2022-10-08T06:44:16.012Z,20.07
2022-10-08T06:46:44.886Z,20.11
2022-10-08T06:49:13.728Z,20.34
2022-10-08T06:51:42.500Z,19.91
2022-10-08T06:54:11.367Z,19.61
2022-10-08T06:56:40.315Z,19.65
2022-10-08T06:59:09.156Z,19.73
2022-10-08T07:01:38.606Z,19.40
2022-10-08T07:04:08.261Z,19.11
2022-10-08T07:06:37.056Z,19.00
2022-10-08T07:09:07.699Z,19.35
2022-10-08T07:11:36.547Z,19.58
2022-10-08T07:14:05.420Z,19.16
2022-10-08T07:16:34.268Z,18.62
2022-10-08T07:19:03.679Z,17.95
2022-10-08T07:21:32.586Z,17.12
2022-10-08T07:24:02.586Z,16.42
2022-10-08T07:26:35.666Z,16.18
2022-10-08T07:29:15.128Z,14.94
2022-10-08T07:31:44.101Z,13.31
2022-10-08T07:34:14.202Z,12.49
2022-10-08T07:36:43.306Z,11.80
2022-10-08T07:39:15.269Z,11.45
2022-10-08T07:41:44.064Z,11.28
2022-10-08T07:44:13.887Z,11.05
2022-10-08T07:46:49.004Z,10.92
2022-10-08T07:49:19.577Z,11.30
2022-10-08T07:51:48.651Z,11.23
2022-10-08T07:54:19.997Z,11.00
2022-10-08T07:56:48.985Z,10.57
2022-10-08T07:59:17.845Z,10.06
2022-10-08T08:01:47.522Z,9.45
2022-10-08T08:04:16.817Z,9.50
2022-10-08T08:06:50.518Z,10.15
2022-10-08T08:09:19.574Z,10.82
2022-10-08T08:11:49.869Z,11.81
2022-10-08T08:14:20.277Z,12.82
2022-10-08T08:16:49.430Z,13.37
2022-10-08T08:19:18.355Z,14.04
2022-10-08T08:21:47.255Z,14.38
2022-10-08T08:24:18.921Z,14.36
2022-10-08T08:26:47.766Z,14.41
2022-10-08T08:29:18.971Z,14.59
2022-10-08T08:31:49.929Z,14.26
2022-10-08T08:34:24.365Z,14.08
2022-10-08T08:36:54.342Z,13.72
2022-10-08T08:39:27.546Z,13.35
2022-10-08T08:42:17.999Z,12.54
2022-10-08T08:45:01.470Z,11.12
2022-10-08T08:47:45.771Z,9.74
2022-10-08T08:50:26.677Z,8.91
2022-10-08T08:52:56.646Z,8.28
2022-10-08T08:55:53.714Z,8.08
2022-10-08T08:58:38.020Z,7.86
2022-10-08T09:01:10.205Z,7.54
2022-10-08T09:03:59.876Z,7.33
2022-10-08T09:06:30.612Z,7.10
2022-10-08T09:09:16.644Z,6.89
2022-10-08T09:11:45.534Z,6.84
2022-10-08T09:14:15.242Z,6.68
2022-10-08T09:16:44.296Z,6.49
2022-10-08T09:19:13.381Z,6.36
2022-10-08T09:21:42.289Z,6.25
2022-10-08T09:24:12.824Z,6.19
2022-10-08T09:26:42.454Z,6.18
2022-10-08T09:29:33.103Z,6.19
2022-10-08T09:32:02.035Z,6.05
2022-10-08T09:34:32.775Z,5.91
2022-10-08T09:37:01.579Z,5.87
2022-10-08T09:39:33.075Z,5.73
2022-10-08T09:42:08.186Z,5.68
2022-10-08T09:44:41.488Z,5.59
2022-10-08T09:47:22.623Z,5.59
2022-10-08T09:50:08.526Z,5.55
2022-10-08T09:52:42.777Z,5.60
2022-10-08T09:55:17.368Z,5.55
2022-10-08T09:57:53.026Z,5.49
2022-10-08T10:00:30.255Z,5.37
2022-10-08T10:03:02.973Z,5.33
2022-10-08T10:05:37.875Z,5.23
2022-10-08T10:08:07.547Z,5.18
2022-10-08T10:10:41.405Z,5.16
2022-10-08T10:13:15.721Z,5.07
2022-10-08T10:15:53.019Z,4.97
2022-10-08T10:18:43.727Z,4.90
2022-10-08T10:21:22.562Z,4.77
2022-10-08T10:24:06.294Z,4.78
2022-10-08T10:26:43.735Z,4.68
2022-10-08T10:29:15.630Z,4.65
2022-10-08T10:31:59.217Z,4.55
2022-10-08T10:34:36.564Z,4.48
2022-10-08T10:37:21.691Z,4.44
2022-10-08T10:39:58.187Z,4.34
2022-10-08T10:42:33.651Z,4.37
2022-10-08T10:45:14.440Z,4.38
2022-10-08T10:47:43.317Z,4.30
2022-10-08T10:50:16.712Z,4.29
2022-10-08T10:53:11.097Z,4.27
2022-10-08T10:55:54.663Z,4.26
2022-10-08T10:58:37.359Z,4.23
2022-10-08T11:01:13.467Z,4.22
2022-10-08T11:03:54.880Z,4.22
2022-10-08T11:06:59.048Z,4.20
2022-10-08T11:09:41.406Z,4.16
2022-10-08T11:12:42.773Z,4.17
2022-10-08T11:15:39.241Z,4.13
2022-10-08T11:18:32.691Z,4.05
2022-10-08T11:21:10.865Z,4.00
2022-10-08T11:23:55.461Z,3.95
2022-10-08T11:26:51.833Z,3.88
2022-10-08T11:29:38.828Z,3.78
2022-10-08T11:32:17.594Z,3.64
2022-10-08T11:35:06.931Z,3.49
2022-10-08T11:37:39.894Z,3.39
2022-10-08T11:40:20.498Z,3.31
2022-10-08T11:43:02.493Z,3.24
2022-10-08T11:45:33.094Z,3.16
2022-10-08T11:48:22.492Z,3.07
2022-10-08T11:50:52.630Z,3.02
2022-10-08T11:53:22.970Z,2.93
2022-10-08T11:56:00.896Z,2.81
2022-10-08T11:58:33.803Z,2.75
2022-10-08T12:01:11.881Z,2.64
2022-10-08T12:03:43.302Z,2.57
2022-10-08T12:06:25.794Z,2.47
2022-10-08T12:09:00.641Z,2.45
2022-10-08T12:11:38.293Z,2.39
2022-10-08T12:14:16.380Z,2.33
2022-10-08T12:16:48.263Z,2.25
2022-10-08T12:19:35.737Z,2.20
2022-10-08T12:22:25.471Z,2.18
2022-10-08T12:25:04.454Z,2.08
2022-10-08T12:27:36.544Z,2.07
2022-10-08T12:30:14.431Z,2.13
2022-10-08T12:32:43.197Z,2.18
2022-10-08T12:35:30.829Z,2.13
2022-10-08T12:38:24.603Z,2.13
2022-10-08T12:41:11.527Z,2.08
2022-10-08T12:43:50.894Z,2.12
2022-10-08T12:46:46.889Z,2.20
2022-10-08T12:49:18.954Z,2.27
2022-10-08T12:52:02.021Z,2.33
2022-10-08T12:54:32.589Z,2.40
2022-10-08T12:57:11.591Z,2.39
2022-10-08T12:59:43.858Z,2.42
2022-10-08T13:02:40.747Z,2.39
2022-10-08T13:05:28.082Z,2.36
2022-10-08T13:07:57.630Z,2.33
2022-10-08T13:10:30.157Z,2.31
2022-10-08T13:13:07.840Z,2.35
2022-10-08T13:15:37.568Z,2.33
2022-10-08T13:18:22.951Z,2.36
2022-10-08T13:20:59.761Z,2.42
2022-10-08T13:23:45.608Z,2.62
2022-10-08T13:26:50.361Z,2.67
2022-10-08T13:29:22.987Z,2.70
2022-10-08T13:32:13.383Z,2.69
2022-10-08T13:34:42.097Z,2.70
2022-10-08T13:37:17.452Z,2.75
2022-10-08T13:40:01.575Z,2.83
2022-10-08T13:42:40.772Z,2.84
2022-10-08T13:45:38.516Z,2.91
2022-10-08T13:48:12.954Z,2.83
2022-10-08T13:50:46.554Z,2.71
2022-10-08T13:53:17.878Z,2.64
2022-10-08T13:55:50.093Z,2.54
2022-10-08T13:58:20.976Z,2.44
2022-10-08T14:00:50.479Z,2.32
2022-10-08T14:03:19.511Z,2.13
2022-10-08T14:05:49.373Z,2.17
2022-10-08T14:08:26.197Z,2.12
2022-10-08T14:10:58.683Z,2.09
2022-10-08T14:13:29.917Z,2.02
2022-10-08T14:16:01.095Z,1.94
2022-10-08T14:18:30.100Z,1.83
2022-10-08T14:20:58.938Z,1.84
2022-10-08T14:23:27.767Z,1.85
2022-10-08T14:25:56.586Z,1.85
2022-10-08T14:28:25.882Z,1.84
2022-10-08T14:30:55.111Z,1.77
2022-10-08T14:33:24.144Z,1.77
2022-10-08T14:35:54.309Z,1.78
2022-10-08T14:38:23.501Z,1.79
2022-10-08T14:40:52.336Z,1.84
2022-10-08T14:43:27.881Z,1.85
2022-10-08T14:46:03.501Z,1.88
2022-10-08T14:48:32.593Z,1.82
2022-10-08T14:51:03.829Z,1.78
2022-10-08T14:53:32.880Z,1.79
2022-10-08T14:56:11.990Z,1.77
2022-10-08T14:58:45.394Z,1.75
2022-10-08T15:01:15.175Z,1.79
2022-10-08T15:03:46.278Z,1.84
2022-10-08T15:06:15.305Z,1.91
2022-10-08T15:08:45.900Z,1.90
2022-10-08T15:11:15.004Z,1.91
2022-10-08T15:13:44.505Z,1.94
2022-10-08T15:16:15.111Z,1.89
2022-10-08T15:18:44.848Z,1.90
2022-10-08T15:21:13.776Z,1.96
2022-10-08T15:23:43.356Z,1.99
2022-10-08T15:26:17.976Z,2.01
2022-10-08T15:28:47.828Z,2.02
2022-10-08T15:31:19.663Z,2.05
2022-10-08T15:33:53.621Z,2.03
2022-10-08T15:36:33.026Z,2.05
2022-10-08T15:39:15.577Z,2.06
2022-10-08T15:41:50.112Z,2.10
2022-10-08T15:44:30.852Z,2.19
2022-10-08T15:47:07.825Z,2.23
2022-10-08T15:49:41.041Z,2.32
2022-10-08T15:52:28.030Z,2.35
2022-10-08T15:54:57.129Z,2.30
2022-10-08T15:57:26.275Z,2.44
2022-10-08T15:59:56.711Z,2.47
2022-10-08T16:02:26.478Z,2.42
2022-10-08T16:04:55.504Z,2.42
2022-10-08T16:07:24.415Z,2.44
2022-10-08T16:09:53.313Z,2.50
2022-10-08T16:12:24.921Z,2.48
2022-10-08T16:14:55.070Z,2.43
2022-10-08T16:17:27.776Z,2.39
2022-10-08T16:19:57.674Z,2.40
2022-10-08T16:22:26.657Z,2.41
2022-10-08T16:24:55.537Z,2.47
2022-10-08T16:27:27.506Z,2.50
2022-10-08T16:29:59.618Z,2.53
2022-10-08T16:32:28.579Z,2.57
2022-10-08T16:34:57.464Z,2.58
2022-10-08T16:37:28.268Z,2.59
2022-10-08T16:40:04.176Z,2.59
2022-10-08T16:42:33.414Z,2.58
2022-10-08T16:45:02.847Z,2.52
2022-10-08T16:47:31.755Z,2.67
2022-10-08T16:50:00.674Z,2.76
2022-10-08T16:52:30.002Z,2.85
2022-10-08T16:54:58.836Z,2.85
2022-10-08T16:57:29.365Z,2.85
2022-10-08T17:00:01.652Z,2.85
2022-10-08T17:02:34.774Z,2.82
2022-10-08T17:05:07.792Z,2.87
2022-10-08T17:07:36.842Z,2.84
2022-10-08T17:10:06.504Z,2.88
2022-10-08T17:12:35.321Z,2.88
2022-10-08T17:15:04.307Z,2.97
2022-10-08T17:17:33.281Z,3.00
2022-10-08T17:20:02.141Z,3.02
2022-10-08T17:22:31.434Z,3.04
2022-10-08T17:25:01.576Z,2.98
2022-10-08T17:27:32.336Z,3.02
2022-10-08T17:30:01.118Z,3.04
2022-10-08T17:32:32.472Z,3.10
2022-10-08T17:35:01.372Z,3.15
2022-10-08T17:37:32.240Z,3.18
2022-10-08T17:40:01.022Z,3.20
2022-10-08T17:42:31.097Z,3.17
2022-10-08T17:44:59.992Z,3.16
2022-10-08T17:47:29.416Z,3.22
2022-10-08T17:49:58.227Z,3.26
2022-10-08T17:52:27.052Z,3.25
2022-10-08T17:54:55.788Z,3.20
2022-10-08T17:57:24.527Z,3.26
2022-10-08T17:59:53.273Z,3.26
2022-10-08T18:02:25.922Z,3.24
2022-10-08T18:04:55.224Z,3.31
2022-10-08T18:07:24.012Z,3.28
2022-10-08T18:09:52.861Z,3.33
2022-10-08T18:12:21.944Z,3.32
2022-10-08T18:14:50.715Z,3.33
2022-10-08T18:17:19.470Z,3.30
2022-10-08T18:19:50.406Z,3.29
2022-10-08T18:22:22.570Z,3.29
2022-10-08T18:24:51.775Z,3.29
2022-10-08T18:27:20.997Z,3.26
2022-10-08T18:29:49.836Z,3.21
2022-10-08T18:32:18.639Z,3.22
2022-10-08T18:34:47.482Z,3.21
2022-10-08T18:37:16.627Z,3.24
2022-10-08T18:39:45.491Z,3.33
2022-10-08T18:42:14.531Z,3.34
2022-10-08T18:44:43.288Z,3.32
2022-10-08T18:47:12.119Z,3.28
2022-10-08T18:49:40.908Z,3.33
2022-10-08T18:52:09.708Z,3.36
2022-10-08T18:54:38.506Z,3.37
2022-10-08T18:57:07.333Z,3.36
2022-10-08T18:59:36.224Z,3.36
2022-10-08T19:02:05.947Z,3.44
2022-10-08T19:04:34.894Z,3.39
2022-10-08T19:07:03.842Z,3.33
2022-10-08T19:09:32.616Z,3.29
2022-10-08T19:12:01.543Z,3.28
2022-10-08T19:14:30.413Z,3.15
2022-10-08T19:17:00.780Z,3.24
2022-10-08T19:19:30.065Z,3.28
2022-10-08T19:22:02.323Z,3.28
2022-10-08T19:24:31.623Z,3.27
2022-10-08T19:27:00.395Z,3.29
2022-10-08T19:29:33.825Z,3.28
2022-10-08T19:32:02.602Z,3.32
2022-10-08T19:34:31.352Z,3.29
2022-10-08T19:37:00.138Z,3.30
2022-10-08T19:39:31.475Z,3.30
2022-10-08T19:42:00.484Z,3.31
2022-10-08T19:44:29.392Z,3.34
2022-10-08T19:46:58.306Z,3.30
2022-10-08T19:49:27.078Z,3.34
2022-10-08T19:51:55.936Z,3.27
2022-10-08T19:54:25.681Z,3.28
2022-10-08T19:56:56.491Z,3.31
2022-10-08T19:59:25.299Z,3.31
2022-10-08T20:01:55.057Z,3.28
2022-10-08T20:04:24.579Z,3.28
2022-10-08T20:06:53.991Z,3.29
2022-10-08T20:09:22.839Z,3.37
2022-10-08T20:11:51.816Z,3.37
2022-10-08T20:14:20.580Z,3.39
2022-10-08T20:16:49.565Z,3.39
2022-10-08T20:19:21.150Z,3.36
2022-10-08T20:21:51.512Z,3.36
2022-10-08T20:24:20.801Z,3.39
2022-10-08T20:26:50.667Z,3.44
2022-10-08T20:29:22.058Z,3.47
2022-10-08T20:31:55.517Z,3.48
2022-10-08T20:34:29.326Z,3.48
2022-10-08T20:37:00.320Z,3.45
2022-10-08T20:39:29.667Z,3.42
2022-10-08T20:42:00.095Z,3.38
2022-10-08T20:44:28.830Z,3.43
2022-10-08T20:46:57.710Z,3.43
2022-10-08T20:49:26.640Z,3.42
2022-10-08T20:51:55.401Z,3.49
2022-10-08T20:54:24.332Z,3.48
2022-10-08T20:56:53.167Z,3.40
2022-10-08T20:59:22.100Z,3.36
2022-10-08T21:01:52.432Z,3.40
2022-10-08T21:04:21.763Z,3.41
2022-10-08T21:06:51.909Z,3.33
2022-10-08T21:09:22.678Z,3.31
2022-10-08T21:11:51.501Z,3.29
2022-10-08T21:14:23.068Z,3.28
2022-10-08T21:16:52.105Z,3.28
2022-10-08T21:19:24.133Z,3.26
2022-10-08T21:21:53.236Z,3.27
2022-10-08T21:24:22.017Z,3.34
2022-10-08T21:26:50.788Z,3.35
2022-10-08T21:29:19.999Z,3.34
2022-10-08T21:31:48.857Z,3.39
2022-10-08T21:34:17.919Z,3.35
2022-10-08T21:36:46.888Z,3.30
2022-10-08T21:39:17.929Z,3.36
2022-10-08T21:41:47.498Z,3.40
2022-10-08T21:44:16.349Z,3.40
2022-10-08T21:46:45.744Z,3.33
2022-10-08T21:49:23.213Z,3.35
2022-10-08T21:51:52.904Z,3.37
2022-10-08T21:54:21.732Z,3.29
2022-10-08T21:56:50.708Z,3.31
2022-10-08T21:59:19.498Z,3.33
2022-10-08T22:01:50.989Z,3.31
2022-10-08T22:04:25.227Z,3.28
2022-10-08T22:06:58.307Z,3.28
2022-10-08T22:09:30.146Z,3.27
2022-10-08T22:11:59.989Z,3.28
2022-10-08T22:14:29.613Z,3.26
2022-10-08T22:16:58.657Z,3.29
2022-10-08T22:19:27.511Z,3.26
2022-10-08T22:21:56.398Z,3.26
2022-10-08T22:24:25.264Z,3.32
2022-10-08T22:26:54.130Z,3.27
2022-10-08T22:29:23.055Z,3.27
2022-10-08T22:31:51.916Z,3.21
2022-10-08T22:34:20.735Z,3.25
2022-10-08T22:36:51.466Z,3.18
2022-10-08T22:39:20.213Z,3.18
2022-10-08T22:41:48.948Z,3.10
2022-10-08T22:44:17.715Z,3.11
2022-10-08T22:46:46.491Z,3.16
2022-10-08T22:49:18.166Z,3.16
2022-10-08T22:51:46.968Z,3.17
2022-10-08T22:54:15.779Z,3.14
2022-10-08T22:56:44.537Z,3.11
2022-10-08T22:59:13.578Z,3.18
2022-10-08T23:01:42.837Z,3.21
2022-10-08T23:04:11.782Z,3.25
2022-10-08T23:06:40.623Z,3.23
2022-10-08T23:09:13.126Z,3.25
2022-10-08T23:11:41.929Z,3.24
2022-10-08T23:14:11.389Z,3.22
2022-10-08T23:16:40.176Z,3.19
2022-10-08T23:19:34.044Z,3.18
2022-10-08T23:22:02.835Z,3.16
2022-10-08T23:24:31.646Z,3.15
2022-10-08T23:27:00.557Z,3.18
2022-10-08T23:29:29.431Z,3.15
2022-10-08T23:31:58.248Z,3.12
2022-10-08T23:34:27.093Z,3.04
2022-10-08T23:36:55.857Z,2.99
2022-10-08T23:39:24.689Z,2.95
2022-10-08T23:41:53.468Z,2.99
2022-10-08T23:44:22.633Z,2.99
2022-10-08T23:46:51.389Z,2.93
2022-10-08T23:49:20.260Z,2.99
2022-10-08T23:51:48.998Z,2.99
2022-10-08T23:54:17.729Z,3.01
2022-10-08T23:56:46.551Z,3.02
2022-10-08T23:59:15.329Z,3.11
